createdAt,value
2017-12-21T00:00:27.658Z,18.10
2017-12-21T00:02:55.170Z,22.23
2017-12-21T00:05:22.681Z,15.45
2017-12-21T00:07:50.234Z,18.45
2017-12-21T00:10:17.739Z,18.25
2017-12-21T00:12:45.249Z,21.80
2017-12-21T00:15:13.114Z,20.65
2017-12-21T00:17:40.675Z,17.27
2017-12-21T00:20:08.233Z,18.52
2017-12-21T00:22:41.218Z,22.15
2017-12-21T00:25:08.730Z,23.75
2017-12-21T00:27:36.234Z,21.77
2017-12-21T00:30:03.778Z,16.05
2017-12-21T00:32:31.291Z,20.80
2017-12-21T00:34:58.799Z,16.77
2017-12-21T00:37:26.680Z,19.92
2017-12-21T00:39:54.180Z,18.37
2017-12-21T00:42:21.690Z,21.27
2017-12-21T00:44:49.250Z,17.02
2017-12-21T00:47:16.760Z,21.52
2017-12-21T00:49:45.730Z,18.58
2017-12-21T00:52:13.433Z,19.55
2017-12-21T00:54:40.953Z,16.08
2017-12-21T00:57:08.479Z,21.02
2017-12-21T00:59:36.039Z,20.15
2017-12-21T01:02:03.552Z,17.95
2017-12-21T01:04:31.065Z,23.60
2017-12-21T01:06:58.614Z,18.02
2017-12-21T01:09:26.168Z,16.23
2017-12-21T01:11:53.677Z,22.25
2017-12-21T01:14:21.378Z,20.98
2017-12-21T01:16:48.885Z,23.38
2017-12-21T01:19:16.434Z,20.60
2017-12-21T01:21:44.173Z,20.25
2017-12-21T01:24:11.676Z,24.63
2017-12-21T01:26:39.197Z,24.60
2017-12-21T01:29:06.759Z,24.92
2017-12-21T01:31:34.306Z,28.05
2017-12-21T01:34:01.826Z,21.33
2017-12-21T01:36:29.607Z,29.95
2017-12-21T01:38:57.114Z,35.10
2017-12-21T01:41:24.646Z,31.58
2017-12-21T01:43:52.545Z,25.52
2017-12-21T01:46:20.088Z,27.48
2017-12-21T01:48:47.628Z,31.83
2017-12-21T01:51:15.189Z,30.10
2017-12-21T01:53:42.697Z,35.47
2017-12-21T01:56:10.230Z,32.53
2017-12-21T01:58:37.790Z,33.33
2017-12-21T02:01:05.323Z,32.25
2017-12-21T02:03:32.834Z,32.65
2017-12-21T02:06:00.429Z,29.45
2017-12-21T02:08:27.937Z,26.20
2017-12-21T02:10:55.448Z,30.02
2017-12-21T02:13:23.108Z,29.02
2017-12-21T02:15:50.591Z,25.95
2017-12-21T02:18:18.134Z,27.10
2017-12-21T02:20:45.865Z,25.37
2017-12-21T02:23:13.373Z,25.88
2017-12-21T02:25:40.914Z,34.67
2017-12-21T02:28:08.557Z,25.02
2017-12-21T02:30:37.057Z,22.90
2017-12-21T02:33:04.565Z,26.60
2017-12-21T02:35:32.379Z,33.42
2017-12-21T02:37:59.882Z,31.50
2017-12-21T02:40:28.363Z,28.87
2017-12-21T02:42:55.988Z,33.92
2017-12-21T02:45:23.490Z,34.92
2017-12-21T02:47:51.003Z,30.75
2017-12-21T02:50:18.553Z,29.35
2017-12-21T02:52:46.093Z,35.13
2017-12-21T02:55:13.597Z,33.13
2017-12-21T02:57:41.150Z,30.52
2017-12-21T03:00:08.790Z,28.73
2017-12-21T03:02:36.367Z,27.52
2017-12-21T03:05:04.113Z,27.80
2017-12-21T03:07:31.617Z,28.52
2017-12-21T03:09:59.128Z,29.15
2017-12-21T03:12:26.687Z,27.50
2017-12-21T03:14:54.191Z,29.92
2017-12-21T03:17:21.806Z,28.92
2017-12-21T03:19:49.349Z,26.95
2017-12-21T03:22:16.856Z,26.00
2017-12-21T03:24:44.379Z,26.20
2017-12-21T03:27:12.069Z,24.45
2017-12-21T03:29:39.600Z,33.00
2017-12-21T03:32:07.108Z,20.80
2017-12-21T03:34:34.784Z,25.33
2017-12-21T03:37:02.290Z,27.23
2017-12-21T03:39:29.836Z,23.58
2017-12-21T03:41:57.703Z,27.00
2017-12-21T03:44:25.262Z,27.10
2017-12-21T03:46:52.765Z,24.65
2017-12-21T03:49:20.326Z,23.42
2017-12-21T03:51:47.857Z,21.23
2017-12-21T03:54:15.379Z,24.50
2017-12-21T03:56:43.160Z,22.52
2017-12-21T03:59:10.719Z,31.35
2017-12-21T04:01:38.225Z,26.65
2017-12-21T04:04:05.768Z,26.25
2017-12-21T04:06:33.274Z,25.65
2017-12-21T04:09:00.785Z,22.23
2017-12-21T04:11:28.490Z,23.20
2017-12-21T04:13:56.021Z,23.20
2017-12-21T04:16:23.536Z,25.10
2017-12-21T04:18:51.293Z,21.77
2017-12-21T04:21:18.801Z,24.40
2017-12-21T04:23:46.314Z,23.65
2017-12-21T04:26:13.878Z,24.90
2017-12-21T04:28:41.427Z,22.67
2017-12-21T04:31:08.959Z,23.67
2017-12-21T04:33:36.497Z,25.25
2017-12-21T04:36:04.025Z,27.67
2017-12-21T04:38:31.530Z,27.75
2017-12-21T04:40:59.192Z,22.77
2017-12-21T04:43:26.698Z,28.85
2017-12-21T04:45:54.238Z,31.95
2017-12-21T04:48:22.172Z,20.48
2017-12-21T04:50:49.693Z,22.10
2017-12-21T04:53:17.223Z,18.58
2017-12-21T04:55:44.987Z,22.23
2017-12-21T04:58:12.506Z,23.65
2017-12-21T05:00:40.018Z,23.35
2017-12-21T05:03:07.557Z,23.73
2017-12-21T05:05:35.070Z,24.92
2017-12-21T05:08:02.582Z,25.60
2017-12-21T05:10:30.344Z,24.12
2017-12-21T05:12:57.901Z,25.67
2017-12-21T05:15:25.454Z,22.10
2017-12-21T05:17:53.017Z,20.02
2017-12-21T05:20:20.526Z,21.62
2017-12-21T05:22:48.035Z,19.10
2017-12-21T05:25:15.589Z,24.42
2017-12-21T05:27:43.124Z,23.67
2017-12-21T05:30:10.648Z,23.77
2017-12-21T05:32:38.313Z,25.58
2017-12-21T05:35:05.832Z,25.55
2017-12-21T05:37:33.389Z,21.33
2017-12-21T05:40:00.947Z,21.50
2017-12-21T05:42:28.510Z,22.58
2017-12-21T05:44:56.018Z,25.70
2017-12-21T05:47:23.626Z,27.67
2017-12-21T05:49:51.158Z,27.15
2017-12-21T05:52:18.669Z,32.80
2017-12-21T05:54:46.249Z,28.08
2017-12-21T05:57:13.778Z,32.08
2017-12-21T05:59:41.317Z,30.58
2017-12-21T06:02:09.158Z,29.25
2017-12-21T06:04:37.481Z,29.80
2017-12-21T06:07:05.019Z,30.40
2017-12-21T06:09:32.577Z,27.42
2017-12-21T06:12:00.650Z,25.00
2017-12-21T06:14:28.164Z,32.70
2017-12-21T06:16:55.734Z,36.85
2017-12-21T06:19:23.247Z,28.45
2017-12-21T06:21:50.764Z,31.75
2017-12-21T06:24:18.458Z,29.17
2017-12-21T06:26:46.004Z,28.70
2017-12-21T06:29:13.564Z,26.75
2017-12-21T06:31:41.145Z,36.67
2017-12-21T06:34:08.659Z,29.92
2017-12-21T06:36:36.169Z,38.00
2017-12-21T06:39:04.720Z,37.47
2017-12-21T06:41:32.240Z,32.33
2017-12-21T06:43:59.750Z,32.53
2017-12-21T06:46:27.501Z,31.90
2017-12-21T06:48:55.064Z,34.67
2017-12-21T06:51:22.618Z,37.15
2017-12-21T06:53:50.598Z,35.03
2017-12-21T06:56:18.142Z,34.88
2017-12-21T06:58:45.662Z,33.05
2017-12-21T07:01:13.466Z,26.35
2017-12-21T07:03:40.976Z,35.88
2017-12-21T07:06:08.503Z,41.22
2017-12-21T07:08:36.125Z,30.55
2017-12-21T07:11:03.660Z,32.20
2017-12-21T07:13:31.172Z,25.80
2017-12-21T07:15:58.718Z,32.00
2017-12-21T07:18:26.224Z,31.62
2017-12-21T07:20:53.729Z,30.15
2017-12-21T07:23:21.397Z,28.40
2017-12-21T07:25:48.905Z,30.00
2017-12-21T07:28:16.422Z,30.05
2017-12-21T07:30:44.380Z,30.12
2017-12-21T07:33:11.890Z,31.35
2017-12-21T07:35:39.411Z,23.35
2017-12-21T07:38:07.162Z,28.33
2017-12-21T07:40:34.665Z,26.23
2017-12-21T07:43:02.185Z,23.85
2017-12-21T07:45:29.754Z,25.95
2017-12-21T07:47:57.280Z,25.88
2017-12-21T07:50:24.785Z,24.05
2017-12-21T07:52:52.323Z,26.80
2017-12-21T07:55:19.871Z,27.75
2017-12-21T07:57:47.377Z,25.40
2017-12-21T08:00:15.296Z,24.37
2017-12-21T08:02:42.857Z,26.27
2017-12-21T08:05:10.415Z,28.50
2017-12-21T08:07:38.280Z,24.52
2017-12-21T08:10:06.761Z,21.92
2017-12-21T08:12:34.267Z,12.70
2017-12-21T08:15:01.960Z,22.27
2017-12-21T08:17:29.848Z,20.30
2017-12-21T08:19:57.358Z,20.02
2017-12-21T08:22:25.087Z,18.98
2017-12-21T08:24:52.627Z,14.43
2017-12-21T08:27:21.209Z,15.93
2017-12-21T08:29:48.961Z,16.15
2017-12-21T08:32:16.469Z,21.23
2017-12-21T08:34:44.005Z,20.37
2017-12-21T08:37:11.655Z,17.50
2017-12-21T08:39:39.161Z,17.50
2017-12-21T08:42:06.657Z,16.27
2017-12-21T08:44:34.213Z,21.37
2017-12-21T08:47:01.722Z,18.42
2017-12-21T08:49:29.234Z,20.58
2017-12-21T08:51:56.902Z,21.92
2017-12-21T08:54:24.426Z,18.92
2017-12-21T08:56:51.933Z,16.08
2017-12-21T08:59:19.681Z,16.48
2017-12-21T09:01:47.186Z,18.30
2017-12-21T09:04:14.697Z,12.93
2017-12-21T09:06:42.283Z,16.20
2017-12-21T09:09:09.820Z,18.92
2017-12-21T09:11:37.330Z,20.65
2017-12-21T09:14:04.882Z,23.02
2017-12-21T09:16:32.392Z,14.80
2017-12-21T09:18:59.889Z,20.02
2017-12-21T09:21:27.453Z,15.85
2017-12-21T09:23:54.971Z,17.02
2017-12-21T09:26:22.528Z,16.92
2017-12-21T09:28:50.076Z,14.38
2017-12-21T09:31:17.582Z,13.48
2017-12-21T09:33:45.086Z,12.40
2017-12-21T09:36:12.649Z,12.73
2017-12-21T09:38:40.150Z,14.20
2017-12-21T09:41:07.659Z,17.75
2017-12-21T09:43:35.234Z,12.70
2017-12-21T09:46:02.733Z,20.98
2017-12-21T09:48:30.250Z,12.82
2017-12-21T09:50:58.116Z,15.48
2017-12-21T09:53:25.730Z,7.93
2017-12-21T09:55:54.364Z,12.07
2017-12-21T09:58:22.331Z,14.85
2017-12-21T10:00:49.833Z,12.60
2017-12-21T10:03:17.756Z,12.05
2017-12-21T10:05:45.518Z,10.65
2017-12-21T10:08:14.615Z,10.20
2017-12-21T10:10:42.173Z,11.55
2017-12-21T10:13:10.650Z,21.52
2017-12-21T10:15:38.145Z,8.75
2017-12-21T10:18:06.509Z,14.30
2017-12-21T10:20:34.459Z,10.90
2017-12-21T10:23:02.425Z,11.88
2017-12-21T10:25:29.929Z,12.75
2017-12-21T10:27:57.990Z,11.15
2017-12-21T10:30:25.525Z,15.60
2017-12-21T10:32:54.610Z,11.20
2017-12-21T10:35:22.372Z,13.27
2017-12-21T10:37:50.668Z,10.50
2017-12-21T10:40:18.185Z,15.48
2017-12-21T10:42:45.869Z,15.77
2017-12-21T10:45:13.369Z,12.73
2017-12-21T10:47:40.869Z,12.52
2017-12-21T10:50:08.549Z,13.25
2017-12-21T10:52:36.105Z,11.75
2017-12-21T10:55:03.666Z,26.37
2017-12-21T10:57:31.394Z,10.90
2017-12-21T10:59:58.889Z,9.93
2017-12-21T11:02:26.400Z,12.00
2017-12-21T11:04:54.926Z,11.88
2017-12-21T11:07:22.484Z,10.80
2017-12-21T11:09:49.982Z,15.70
2017-12-21T11:12:17.706Z,10.80
2017-12-21T11:14:45.205Z,9.38
2017-12-21T11:17:12.700Z,7.70
2017-12-21T11:19:40.263Z,10.80
2017-12-21T11:22:07.765Z,8.13
2017-12-21T11:24:36.216Z,11.45
2017-12-21T11:27:03.776Z,8.70
2017-12-21T11:29:32.249Z,8.77
2017-12-21T11:32:00.430Z,11.75
2017-12-21T11:34:28.100Z,7.37
2017-12-21T11:36:55.669Z,10.13
2017-12-21T11:39:23.165Z,9.35
2017-12-21T11:41:51.288Z,11.90
2017-12-21T11:44:18.827Z,9.38
2017-12-21T11:46:46.809Z,10.23
2017-12-21T11:49:15.375Z,10.50
2017-12-21T11:51:43.904Z,9.32
2017-12-21T11:54:11.424Z,8.18
2017-12-21T11:56:39.002Z,12.07
2017-12-21T11:59:06.496Z,11.35
2017-12-21T12:01:34.905Z,8.63
2017-12-21T12:04:03.308Z,9.10
2017-12-21T12:06:31.718Z,11.60
2017-12-21T12:08:59.226Z,13.55
2017-12-21T12:11:28.761Z,27.87
2017-12-21T12:13:56.720Z,10.48
2017-12-21T12:16:25.057Z,12.27
2017-12-21T12:18:54.395Z,13.52
2017-12-21T12:21:21.930Z,16.60
2017-12-21T12:23:49.634Z,12.77
2017-12-21T12:26:17.550Z,11.98
2017-12-21T12:28:46.007Z,10.68
2017-12-21T12:31:13.550Z,13.68
2017-12-21T12:33:42.106Z,10.07
2017-12-21T12:36:09.724Z,21.33
2017-12-21T12:38:38.436Z,13.98
2017-12-21T12:41:06.000Z,13.43
2017-12-21T12:43:34.394Z,10.10
2017-12-21T12:46:02.103Z,13.32
2017-12-21T12:48:29.925Z,11.30
2017-12-21T12:50:57.429Z,12.88
2017-12-21T12:53:25.036Z,9.10
2017-12-21T12:55:52.634Z,10.27
2017-12-21T12:58:21.179Z,11.12
2017-12-21T13:00:48.743Z,8.50
2017-12-21T13:03:16.604Z,9.90
2017-12-21T13:05:44.164Z,8.80
2017-12-21T13:08:11.927Z,9.48
2017-12-21T13:10:39.769Z,9.63
2017-12-21T13:13:07.764Z,16.92
2017-12-21T13:15:35.494Z,9.70
2017-12-21T13:18:03.699Z,13.13
2017-12-21T13:20:31.260Z,13.52
2017-12-21T13:22:58.917Z,11.12
2017-12-21T13:25:26.916Z,10.18
2017-12-21T13:27:54.653Z,8.98
2017-12-21T13:30:22.215Z,9.68
2017-12-21T13:32:50.082Z,14.60
2017-12-21T13:35:17.639Z,16.25
2017-12-21T13:37:45.183Z,11.85
2017-12-21T13:40:13.041Z,9.43
2017-12-21T13:42:40.623Z,9.55
2017-12-21T13:45:08.591Z,14.07
2017-12-21T13:47:36.222Z,7.57
2017-12-21T13:50:04.820Z,3.00
2017-12-21T13:52:32.395Z,3.20
2017-12-21T13:55:00.987Z,2.85
2017-12-21T13:57:28.844Z,4.53
2017-12-21T13:59:56.570Z,3.70
2017-12-21T14:02:24.478Z,3.25
2017-12-21T14:04:52.240Z,4.70
2017-12-21T14:07:19.746Z,2.78
2017-12-21T14:09:48.557Z,2.70
2017-12-21T14:12:16.058Z,2.92
2017-12-21T14:14:44.665Z,4.05
2017-12-21T14:17:12.293Z,1.83
2017-12-21T14:19:40.052Z,3.05
2017-12-21T14:22:07.816Z,2.87
2017-12-21T14:24:35.887Z,3.55
2017-12-21T14:27:03.399Z,1.75
2017-12-21T14:29:31.234Z,5.05
2017-12-21T14:31:59.180Z,4.47
2017-12-21T14:34:27.000Z,3.45
2017-12-21T14:36:55.525Z,1.62
2017-12-21T14:39:24.415Z,4.55
2017-12-21T14:41:52.590Z,3.78
2017-12-21T14:44:20.369Z,5.78
2017-12-21T14:46:48.937Z,2.65
2017-12-21T14:49:17.578Z,4.22
2017-12-21T14:51:45.343Z,4.07
2017-12-21T14:54:13.269Z,1.48
2017-12-21T14:56:41.888Z,2.60
2017-12-21T14:59:10.015Z,4.78
2017-12-21T15:01:37.847Z,1.55
2017-12-21T15:04:05.377Z,2.15
2017-12-21T15:06:33.608Z,2.50
2017-12-21T15:09:01.603Z,3.58
2017-12-21T15:11:29.855Z,2.65
2017-12-21T15:13:58.949Z,3.05
2017-12-21T15:16:26.768Z,5.12
2017-12-21T15:18:54.579Z,3.42
2017-12-21T15:21:22.125Z,3.05
2017-12-21T15:23:51.011Z,4.82
2017-12-21T15:26:18.552Z,3.97
2017-12-21T15:28:46.270Z,7.40
2017-12-21T15:31:15.110Z,6.10
2017-12-21T15:33:43.044Z,2.50
2017-12-21T15:36:10.768Z,5.35
2017-12-21T15:38:39.557Z,2.72
2017-12-21T15:41:08.345Z,1.80
2017-12-21T15:43:36.419Z,2.75
2017-12-21T15:46:04.286Z,2.40
2017-12-21T15:48:31.893Z,4.25
2017-12-21T15:51:00.648Z,12.40
2017-12-21T15:53:28.606Z,6.22
2017-12-21T15:55:57.288Z,2.60
2017-12-21T15:58:25.050Z,3.92
2017-12-21T16:00:53.951Z,6.80
2017-12-21T16:03:21.633Z,2.58
2017-12-21T16:05:49.532Z,5.95
2017-12-21T16:08:17.231Z,4.85
2017-12-21T16:10:45.404Z,8.20
2017-12-21T16:13:13.168Z,2.33
2017-12-21T16:15:41.973Z,2.97
2017-12-21T16:18:10.131Z,2.10
2017-12-21T16:20:39.035Z,2.37
2017-12-21T16:23:06.803Z,5.97
2017-12-21T16:25:34.445Z,2.47
2017-12-21T16:28:02.097Z,5.60
2017-12-21T16:30:29.673Z,3.83
2017-12-21T16:32:57.949Z,3.42
2017-12-21T16:35:25.605Z,4.00
2017-12-21T16:37:53.794Z,7.47
2017-12-21T16:40:21.611Z,10.30
2017-12-21T16:42:49.408Z,1.85
2017-12-21T16:45:18.546Z,4.43
2017-12-21T16:47:46.267Z,2.40
2017-12-21T16:50:14.906Z,6.95
2017-12-21T16:52:42.702Z,3.75
2017-12-21T16:55:10.553Z,3.33
2017-12-21T16:57:38.962Z,3.55
2017-12-21T17:00:06.816Z,3.85
2017-12-21T17:02:34.389Z,4.32
2017-12-21T17:05:02.867Z,7.43
2017-12-21T17:07:31.383Z,3.33
2017-12-21T17:10:01.099Z,3.92
2017-12-21T17:12:28.637Z,4.07
2017-12-21T17:14:56.995Z,3.40
2017-12-21T17:17:24.579Z,3.95
2017-12-21T17:19:52.162Z,3.53
2017-12-21T17:22:20.185Z,2.80
2017-12-21T17:24:47.735Z,3.35
2017-12-21T17:27:16.021Z,3.83
2017-12-21T17:29:44.837Z,5.05
2017-12-21T17:32:13.502Z,7.25
2017-12-21T17:34:41.033Z,4.90
2017-12-21T17:37:09.130Z,4.43
2017-12-21T17:39:36.701Z,5.72
2017-12-21T17:42:04.344Z,5.25
2017-12-21T17:44:32.414Z,3.83
2017-12-21T17:47:00.076Z,7.43
2017-12-21T17:49:27.642Z,6.45
2017-12-21T17:51:55.397Z,4.37
2017-12-21T17:54:23.167Z,5.10
2017-12-21T17:56:50.783Z,7.15
2017-12-21T17:59:18.802Z,3.85
2017-12-21T18:01:46.298Z,4.75
2017-12-21T18:04:14.326Z,3.05
2017-12-21T18:06:42.260Z,2.80
2017-12-21T18:09:10.465Z,4.03
2017-12-21T18:11:38.025Z,3.40
2017-12-21T18:14:05.777Z,2.37
2017-12-21T18:16:33.540Z,2.50
2017-12-21T18:19:01.204Z,2.05
2017-12-21T18:21:29.507Z,3.10
2017-12-21T18:23:57.049Z,3.33
2017-12-21T18:26:24.608Z,7.43
2017-12-21T18:28:52.517Z,17.10
2017-12-21T18:31:20.052Z,5.55
2017-12-21T18:33:48.143Z,21.42
2017-12-21T18:36:16.893Z,6.80
2017-12-21T18:38:44.760Z,7.32
2017-12-21T18:41:12.300Z,4.07
2017-12-21T18:43:40.172Z,6.07
2017-12-21T18:46:07.674Z,3.12
2017-12-21T18:48:35.610Z,4.12
2017-12-21T18:51:03.476Z,5.93
2017-12-21T18:53:31.044Z,5.97
2017-12-21T18:55:58.568Z,5.10
2017-12-21T18:58:26.329Z,3.80
2017-12-21T19:00:53.853Z,3.47
2017-12-21T19:03:21.682Z,4.82
2017-12-21T19:05:49.543Z,4.30
2017-12-21T19:08:17.106Z,3.45
2017-12-21T19:10:45.076Z,6.05
2017-12-21T19:13:12.839Z,4.55
2017-12-21T19:15:40.443Z,4.07
2017-12-21T19:18:08.113Z,5.12
2017-12-21T19:20:35.723Z,5.65
2017-12-21T19:23:03.454Z,5.30
2017-12-21T19:25:30.978Z,9.18
2017-12-21T19:27:59.118Z,4.75
2017-12-21T19:30:26.985Z,6.78
2017-12-21T19:32:54.653Z,4.20
2017-12-21T19:35:22.716Z,3.85
2017-12-21T19:37:50.479Z,4.20
2017-12-21T19:40:19.072Z,5.43
2017-12-21T19:42:47.087Z,5.35
2017-12-21T19:45:15.001Z,11.02
2017-12-21T19:47:42.869Z,5.37
2017-12-21T19:50:10.627Z,5.18
2017-12-21T19:52:39.741Z,2.67
2017-12-21T19:55:07.343Z,7.03
2017-12-21T19:57:35.441Z,6.28
2017-12-21T20:00:04.144Z,9.52
2017-12-21T20:02:31.910Z,6.22
2017-12-21T20:04:59.576Z,6.40
2017-12-21T20:07:27.334Z,5.53
2017-12-21T20:09:55.354Z,5.25
2017-12-21T20:12:22.983Z,4.43
2017-12-21T20:14:50.626Z,5.57
2017-12-21T20:17:18.492Z,5.18
2017-12-21T20:19:46.322Z,5.15
2017-12-21T20:22:13.870Z,5.12
2017-12-21T20:24:41.598Z,6.40
2017-12-21T20:27:09.649Z,7.43
2017-12-21T20:29:37.230Z,5.72
2017-12-21T20:32:05.075Z,6.43
2017-12-21T20:34:33.267Z,9.18
2017-12-21T20:37:00.932Z,6.22
2017-12-21T20:39:28.624Z,8.75
2017-12-21T20:41:56.542Z,10.20
2017-12-21T20:44:24.324Z,10.43
2017-12-21T20:46:52.683Z,6.50
2017-12-21T20:49:20.447Z,10.00
2017-12-21T20:51:48.426Z,6.90
2017-12-21T20:54:16.521Z,8.35
2017-12-21T20:56:44.347Z,8.85
2017-12-21T20:59:12.138Z,8.55
2017-12-21T21:01:39.883Z,7.15
2017-12-21T21:04:07.763Z,11.15
2017-12-21T21:06:35.317Z,14.25
2017-12-21T21:09:03.175Z,11.45
2017-12-21T21:11:30.978Z,9.45
2017-12-21T21:13:58.701Z,9.40
2017-12-21T21:16:26.323Z,8.63
2017-12-21T21:18:55.699Z,8.50
2017-12-21T21:21:26.823Z,10.50
2017-12-21T21:23:57.671Z,9.18
2017-12-21T21:26:25.406Z,10.85
2017-12-21T21:28:53.377Z,11.05
2017-12-21T21:31:21.551Z,8.05
2017-12-21T21:33:50.131Z,9.38
2017-12-21T21:36:18.822Z,9.25
2017-12-21T21:38:46.705Z,12.77
2017-12-21T21:41:14.256Z,9.32
2017-12-21T21:43:42.127Z,10.38
2017-12-21T21:46:09.770Z,9.35
2017-12-21T21:48:39.099Z,8.45
2017-12-21T21:51:06.960Z,8.43
2017-12-21T21:53:34.907Z,6.40
2017-12-21T21:56:02.451Z,12.60
2017-12-21T21:58:29.969Z,7.65
2017-12-21T22:00:57.890Z,7.45
2017-12-21T22:03:25.517Z,6.50
2017-12-21T22:05:53.108Z,9.18
2017-12-21T22:08:20.788Z,8.82
2017-12-21T22:10:48.338Z,7.10
2017-12-21T22:13:15.929Z,12.93
2017-12-21T22:15:43.652Z,7.35
2017-12-21T22:18:12.546Z,8.88
2017-12-21T22:20:40.411Z,13.23
2017-12-21T22:23:08.203Z,11.93
2017-12-21T22:25:35.940Z,7.87
2017-12-21T22:28:03.481Z,10.55
2017-12-21T22:30:31.393Z,10.13
2017-12-21T22:32:58.924Z,18.25
2017-12-21T22:35:26.563Z,10.73
2017-12-21T22:37:54.581Z,9.00
2017-12-21T22:40:22.360Z,10.50
2017-12-21T22:42:49.877Z,11.05
2017-12-21T22:45:17.620Z,10.70
2017-12-21T22:47:45.181Z,10.40
2017-12-21T22:50:12.685Z,12.68
2017-12-21T22:52:40.225Z,13.65
2017-12-21T22:55:07.726Z,11.45
2017-12-21T22:57:35.567Z,10.32
2017-12-21T23:00:04.026Z,14.68
2017-12-21T23:02:31.530Z,11.75
2017-12-21T23:04:59.046Z,20.50
2017-12-21T23:07:27.027Z,15.13
2017-12-21T23:09:54.669Z,10.45
2017-12-21T23:12:22.175Z,6.10
2017-12-21T23:14:49.707Z,7.20
2017-12-21T23:17:17.242Z,8.63
2017-12-21T23:19:44.749Z,11.05
2017-12-21T23:22:12.301Z,10.02
2017-12-21T23:24:39.816Z,5.50
2017-12-21T23:27:07.376Z,12.07
2017-12-21T23:29:34.951Z,7.80
2017-12-21T23:32:02.493Z,6.82
2017-12-21T23:34:29.994Z,10.60
2017-12-21T23:36:57.522Z,8.00
2017-12-21T23:39:25.478Z,6.10
2017-12-21T23:41:52.978Z,7.28
2017-12-21T23:44:20.675Z,7.75
2017-12-21T23:46:48.209Z,7.43
2017-12-21T23:49:15.727Z,5.53
2017-12-21T23:51:43.478Z,6.68
2017-12-21T23:54:10.978Z,6.40
2017-12-21T23:56:38.494Z,4.90
2017-12-21T23:59:06.240Z,5.12
